Time;durP1;ratioP1;P1;durP2;ratioP2;P2;SDS_P1;SDS_P2;PMS_P1;PMS_P2;Temp;Humidity;BMP_temperature;BMP_pressure;BME280_temperature;BME280_humidity;BME280_pressure;Samples;Min_cycle;Max_cycle;Signal;HPM_P1;HPM_P2
2022/06/18 00:00:20;;;;;;;3.83;2.83;;;24.70;99.90;;;;;;5073713;28;20679;-69
2022/06/18 00:02:46;;;;;;;4.15;3.05;;;24.80;1.00;;;;;;5073731;28;20251;-68
2022/06/18 00:05:14;;;;;;;5.80;2.83;;;24.70;1.00;;;;;;5074069;28;20203;-69
2022/06/18 00:07:44;;;;;;;3.05;2.85;;;24.70;99.90;;;;;;5073901;28;20639;-69
2022/06/18 00:10:15;;;;;;;5.20;2.75;;;24.60;1.00;;;;;;5073925;28;20188;-69
2022/06/18 00:15:29;;;;;;;3.63;3.10;;;24.60;99.90;;;;;;5073986;28;20222;-69
2022/06/18 00:17:55;;;;;;;4.22;3.20;;;24.60;1.00;;;;;;5073732;28;20271;-69
2022/06/18 00:20:23;;;;;;;3.33;3.03;;;24.60;1.00;;;;;;5073674;28;20255;-70
2022/06/18 00:22:53;;;;;;;3.75;3.10;;;24.50;1.00;;;;;;5073535;28;20173;-69
2022/06/18 00:25:30;;;;;;;3.72;2.60;;;24.50;1.00;;;;;;5073580;28;20180;-69
2022/06/18 00:27:56;;;;;;;3.45;3.13;;;24.40;99.90;;;;;;5073203;28;20196;-69
2022/06/18 00:30:24;;;;;;;3.85;3.10;;;24.40;99.90;;;;;;5073608;28;20180;-69
2022/06/18 00:32:50;;;;;;;3.15;2.95;;;24.40;1.00;;;;;;5073478;28;20656;-69
2022/06/18 00:35:16;;;;;;;4.63;3.25;;;24.40;1.00;;;;;;5073330;28;20173;-69
2022/06/18 00:37:43;;;;;;;3.75;2.90;;;24.40;1.00;;;;;;5073426;28;20196;-69
2022/06/18 00:40:23;;;;;;;3.40;3.10;;;24.30;1.00;;;;;;5073420;28;20164;-69
2022/06/18 00:42:49;;;;;;;4.00;3.60;;;24.40;1.00;;;;;;5072973;28;20255;-70
2022/06/18 00:45:20;;;;;;;5.72;3.40;;;24.30;1.00;;;;;;5073209;28;20165;-69
2022/06/18 00:47:51;;;;;;;3.53;3.08;;;24.30;1.00;;;;;;5073338;28;20177;-69
2022/06/18 00:50:35;;;;;;;3.58;3.30;;;24.30;1.00;;;;;;5073113;28;20179;-71
2022/06/18 00:53:12;;;;;;;4.53;3.55;;;24.30;99.90;;;;;;5073152;28;20180;-70
2022/06/18 00:55:43;;;;;;;5.40;3.35;;;24.30;99.90;;;;;;5073277;28;20156;-70
2022/06/18 00:58:17;;;;;;;4.22;3.30;;;24.20;99.90;;;;;;5073007;28;20208;-69
2022/06/18 01:00:46;;;;;;;3.40;3.10;;;24.10;1.00;;;;;;5073289;28;20187;-70
2022/06/18 01:03:25;;;;;;;4.15;3.60;;;24.10;1.00;;;;;;5072245;28;20230;-69
2022/06/18 01:05:52;;;;;;;8.50;5.57;;;24.10;1.00;;;;;;5073123;28;20303;-69
2022/06/18 01:08:20;;;;;;;5.38;4.90;;;24.10;1.00;;;;;;5073304;28;20218;-69
2022/06/18 01:10:55;;;;;;;4.53;3.70;;;24.00;1.00;;;;;;5072962;28;20192;-69
2022/06/18 01:13:25;;;;;;;6.07;3.88;;;24.00;1.00;;;;;;5073138;28;20182;-69
2022/06/18 01:15:53;;;;;;;4.97;3.50;;;23.90;1.00;;;;;;5072914;28;20668;-69
2022/06/18 01:18:19;;;;;;;6.55;4.10;;;23.90;1.00;;;;;;5073088;28;20762;-69
2022/06/18 01:20:52;;;;;;;6.28;3.60;;;23.90;41.50;;;;;;5073165;28;20255;-70
2022/06/18 01:23:42;;;;;;;3.55;3.25;;;23.90;44.70;;;;;;5073106;28;20188;-69
2022/06/18 01:26:10;;;;;;;3.30;3.10;;;23.80;99.90;;;;;;5072513;28;20690;-69
2022/06/18 01:28:35;;;;;;;5.43;3.58;;;23.70;99.90;;;;;;5072907;28;20259;-69
2022/06/18 01:31:01;;;;;;;4.03;3.60;;;23.70;99.90;;;;;;5073025;28;20267;-69
2022/06/18 01:33:27;;;;;;;5.22;3.75;;;23.70;99.90;;;;;;5072824;28;20561;-70
2022/06/18 01:35:54;;;;;;;4.10;3.70;;;23.70;99.90;;;;;;5072914;28;20169;-69
2022/06/18 01:38:24;;;;;;;4.05;3.75;;;23.70;99.90;;;;;;5072802;28;20187;-69
2022/06/18 01:41:49;;;;;;;8.07;4.35;;;23.60;99.90;;;;;;5072420;28;20176;-69
2022/06/18 01:43:51;;;;;;;5.28;4.20;;;23.60;99.90;;;;;;5072763;28;20187;-69
2022/06/18 01:46:17;;;;;;;5.18;4.05;;;23.70;99.90;;;;;;5072726;28;20211;-70
2022/06/18 01:48:44;;;;;;;4.45;4.07;;;23.60;99.90;;;;;;5072849;28;20168;-69
2022/06/18 01:51:17;;;;;;;4.30;3.90;;;23.60;99.90;;;;;;5072481;28;20181;-69
2022/06/18 01:53:52;;;;;;;4.50;3.80;;;23.60;99.90;;;;;;5072970;28;20196;-69
2022/06/18 01:56:25;;;;;;;7.18;4.28;;;23.60;99.90;;;;;;5072401;28;20222;-69
2022/06/18 01:59:15;;;;;;;5.05;4.05;;;23.70;99.90;;;;;;5072902;28;20206;-69
2022/06/18 02:01:44;;;;;;;8.65;4.20;;;23.60;3.60;;;;;;5072203;28;20193;-69
2022/06/18 02:04:12;;;;;;;5.25;4.32;;;23.60;11.40;;;;;;5072508;28;20196;-68
2022/06/18 02:06:38;;;;;;;4.30;3.88;;;23.60;1.00;;;;;;5072679;28;20303;-69
2022/06/18 02:09:13;;;;;;;4.43;4.03;;;23.50;1.00;;;;;;5072240;28;20644;-68
2022/06/18 02:11:39;;;;;;;4.30;3.90;;;23.60;1.00;;;;;;5072718;28;20184;-69
2022/06/18 02:14:08;;;;;;;5.22;4.18;;;23.60;1.00;;;;;;5072371;28;20204;-68
2022/06/18 02:16:46;;;;;;;4.43;4.03;;;23.60;1.00;;;;;;5075295;28;20179;-68
2022/06/18 02:19:12;;;;;;;9.50;4.03;;;23.60;1.00;;;;;;5076184;28;20515;-68
2022/06/18 02:21:45;;;;;;;4.60;4.20;;;23.60;1.00;;;;;;5076216;28;20168;-68
2022/06/18 02:24:11;;;;;;;8.38;4.30;;;23.50;1.00;;;;;;5075774;28;20196;-69
2022/06/18 02:26:40;;;;;;;4.78;3.60;;;23.50;1.00;;;;;;5075777;28;20235;-68
2022/06/18 02:29:16;;;;;;;4.47;4.07;;;23.50;1.00;;;;;;5075918;28;20183;-69
2022/06/18 02:31:45;;;;;;;5.22;3.85;;;23.50;1.00;;;;;;5076134;28;20160;-68
2022/06/18 02:34:17;;;;;;;10.35;4.35;;;23.50;1.00;;;;;;5075882;28;20173;-68
2022/06/18 02:36:43;;;;;;;4.47;4.07;;;23.40;1.00;;;;;;5076075;28;20169;-68
2022/06/18 02:39:33;;;;;;;7.22;4.22;;;23.30;63.10;;;;;;5075199;28;20179;-68
2022/06/18 02:42:08;;;;;;;4.78;3.78;;;23.30;1.00;;;;;;5075875;28;20176;-68
2022/06/18 02:44:34;;;;;;;4.25;3.85;;;23.20;99.90;;;;;;5075763;28;20210;-68
2022/06/18 02:47:05;;;;;;;6.00;4.60;;;23.20;99.90;;;;;;5075781;28;20267;-68
2022/06/18 02:49:34;;;;;;;7.05;4.03;;;23.10;1.00;;;;;;5075708;28;20172;-68
2022/06/18 02:52:00;;;;;;;5.93;4.28;;;23.10;1.00;;;;;;5075287;28;20520;-68
2022/06/18 02:54:26;;;;;;;5.70;4.28;;;23.10;1.00;;;;;;5075352;28;20270;-68
2022/06/18 02:56:51;;;;;;;11.02;4.18;;;23.10;99.90;;;;;;5075267;28;20569;-68
2022/06/18 02:59:17;;;;;;;6.50;4.10;;;23.10;99.90;;;;;;5075567;28;20180;-69
2022/06/18 03:01:43;;;;;;;5.50;4.03;;;23.00;1.00;;;;;;5075151;28;20659;-69
2022/06/18 03:04:09;;;;;;;7.07;4.45;;;22.90;1.00;;;;;;5075236;28;20659;-69
2022/06/18 03:06:34;;;;;;;5.13;4.35;;;22.90;99.90;;;;;;5075162;28;20311;-69
2022/06/18 03:09:00;;;;;;;7.88;4.78;;;22.90;1.00;;;;;;5074755;28;20204;-69
2022/06/18 03:14:14;;;;;;;6.70;4.35;;;22.90;99.90;;;;;;5075333;28;20704;-69
2022/06/18 03:16:40;;;;;;;7.13;4.50;;;22.80;99.90;;;;;;5074957;28;20190;-68
2022/06/18 03:19:06;;;;;;;6.75;4.50;;;22.80;91.80;;;;;;5074865;28;20211;-69
2022/06/18 03:21:47;;;;;;;9.32;4.50;;;22.90;1.00;;;;;;5074505;28;20654;-68
2022/06/18 03:24:13;;;;;;;5.03;4.53;;;22.80;1.00;;;;;;5074647;28;20169;-68
2022/06/18 03:26:39;;;;;;;6.68;4.38;;;22.70;1.00;;;;;;5074355;28;20208;-68
2022/06/18 03:29:06;;;;;;;4.65;4.25;;;22.70;99.90;;;;;;5074669;28;20177;-68
2022/06/18 03:31:33;;;;;;;6.13;4.57;;;22.60;1.00;;;;;;5074627;28;20234;-68
2022/06/18 03:33:59;;;;;;;5.72;4.30;;;22.60;1.00;;;;;;5074540;28;20172;-68
2022/06/18 03:36:24;;;;;;;4.55;4.25;;;22.60;99.90;;;;;;5074056;28;20226;-68
2022/06/18 03:38:51;;;;;;;5.25;4.30;;;22.60;1.00;;;;;;5074551;28;20168;-68
2022/06/18 03:41:19;;;;;;;7.70;4.55;;;22.70;1.00;;;;;;5074124;28;20172;-68
2022/06/18 03:43:45;;;;;;;8.60;4.88;;;22.70;1.00;;;;;;5074243;28;20161;-69
2022/06/18 03:46:13;;;;;;;4.65;4.30;;;22.70;1.00;;;;;;5072879;28;20569;-68
2022/06/18 03:48:47;;;;;;;5.30;4.75;;;22.70;1.00;;;;;;5074119;28;20184;-69
2022/06/18 03:51:13;;;;;;;7.28;5.00;;;22.70;99.90;;;;;;5073966;28;20179;-68
2022/06/18 03:53:40;;;;;;;5.22;4.72;;;22.80;99.90;;;;;;5074046;28;20165;-69
2022/06/18 03:56:07;;;;;;;8.85;5.00;;;22.80;99.90;;;;;;5074040;28;20277;-68
2022/06/18 03:58:33;;;;;;;8.05;4.60;;;22.80;99.90;;;;;;5074092;28;20186;-68
2022/06/18 04:00:59;;;;;;;5.03;4.57;;;22.90;1.00;;;;;;5074165;28;20283;-68
2022/06/18 04:03:24;;;;;;;9.90;5.30;;;23.00;1.00;;;;;;5073477;28;20257;-69
2022/06/18 04:05:50;;;;;;;5.80;4.80;;;23.00;1.00;;;;;;5073318;28;20215;-69
2022/06/18 04:08:20;;;;;;;8.18;4.50;;;23.00;1.00;;;;;;5073664;28;20486;-68
2022/06/18 04:10:47;;;;;;;5.90;4.53;;;23.00;1.00;;;;;;5073512;28;20531;-68
2022/06/18 04:13:13;;;;;;;5.75;4.78;;;23.00;99.90;;;;;;5073850;28;20223;-69
2022/06/18 04:15:39;;;;;;;6.30;4.25;;;23.10;99.90;;;;;;5073706;28;20168;-68
2022/06/18 04:18:05;;;;;;;6.80;4.95;;;23.10;99.90;;;;;;5073537;28;20214;-68
2022/06/18 04:20:36;;;;;;;8.80;4.63;;;23.30;99.90;;;;;;5072987;28;20654;-69
2022/06/18 04:23:03;;;;;;;9.70;5.00;;;23.40;1.00;;;;;;5073694;28;20645;-68
2022/06/18 04:25:29;;;;;;;7.45;4.65;;;23.50;99.90;;;;;;5073572;28;20161;-69
2022/06/18 04:27:57;;;;;;;6.63;4.00;;;23.70;99.90;;;;;;5073252;28;20539;-68
2022/06/18 04:30:24;;;;;;;5.85;4.70;;;23.90;1.00;;;;;;5073741;28;20177;-68
2022/06/18 04:32:51;;;;;;;10.60;5.18;;;24.00;1.00;;;;;;5073639;28;20267;-69
2022/06/18 04:35:17;;;;;;;9.48;4.78;;;24.10;99.90;;;;;;5072759;28;20165;-68
2022/06/18 04:37:44;;;;;;;6.90;4.55;;;24.30;4.70;;;;;;5072552;28;20173;-70
2022/06/18 04:40:17;;;;;;;5.32;4.88;;;24.60;1.00;;;;;;5073128;28;20171;-69
2022/06/18 04:42:43;;;;;;;6.00;4.68;;;24.70;1.00;;;;;;5073347;28;20297;-68
2022/06/18 04:45:09;;;;;;;5.65;4.30;;;24.90;99.90;;;;;;5073288;28;20626;-69
2022/06/18 04:47:35;;;;;;;5.90;4.82;;;25.10;99.90;;;;;;5073032;28;20299;-69
2022/06/18 04:50:02;;;;;;;8.43;5.40;;;25.20;1.00;;;;;;5072836;28;20172;-69
2022/06/18 04:52:28;;;;;;;6.90;4.50;;;25.60;1.00;;;;;;5073084;28;20183;-69
2022/06/18 04:54:53;;;;;;;7.72;4.90;;;25.70;1.00;;;;;;5073021;28;20176;-69
2022/06/18 04:57:20;;;;;;;8.15;4.55;;;26.10;1.00;;;;;;5072905;28;20226;-69
2022/06/18 04:59:46;;;;;;;6.32;4.75;;;26.30;1.00;;;;;;5073003;28;20172;-70
2022/06/18 05:02:23;;;;;;;6.25;4.82;;;26.60;99.90;;;;;;5072762;28;20220;-70
2022/06/18 05:04:48;;;;;;;9.18;4.70;;;27.00;99.90;;;;;;5072687;28;20180;-70
2022/06/18 05:07:14;;;;;;;7.18;4.60;;;27.10;99.90;;;;;;5072921;28;20658;-70
2022/06/18 05:09:40;;;;;;;8.65;4.90;;;27.20;50.00;;;;;;5072843;28;20252;-70
2022/06/18 05:12:07;;;;;;;6.25;4.57;;;27.30;1.00;;;;;;5072922;28;20179;-70
2022/06/18 05:14:32;;;;;;;6.00;4.22;;;27.30;1.00;;;;;;5072855;28;20243;-70
2022/06/18 05:17:00;;;;;;;7.00;4.55;;;27.60;1.00;;;;;;5072879;28;20210;-70
2022/06/18 05:19:30;;;;;;;8.10;4.70;;;27.80;1.00;;;;;;5072290;28;20168;-70
2022/06/18 05:21:56;;;;;;;5.53;4.35;;;28.10;1.00;;;;;;5072706;28;20182;-70
2022/06/18 05:24:22;;;;;;;4.57;4.18;;;28.40;1.00;;;;;;5073041;28;20176;-70
2022/06/18 05:26:50;;;;;;;6.72;4.25;;;28.60;1.00;;;;;;5072395;28;20231;-69
2022/06/18 05:29:17;;;;;;;8.15;4.43;;;29.10;1.00;;;;;;5072990;28;20191;-69
2022/06/18 05:31:43;;;;;;;6.15;3.83;;;29.50;1.00;;;;;;5072474;28;20178;-69
2022/06/18 05:34:09;;;;;;;7.00;4.10;;;29.90;1.00;;;;;;5072289;28;20168;-69
2022/06/18 05:36:35;;;;;;;6.78;3.95;;;30.30;99.90;;;;;;5072900;28;20624;-69
2022/06/18 05:39:01;;;;;;;7.72;4.20;;;30.30;99.90;;;;;;5072711;28;20168;-70
2022/06/18 05:41:27;;;;;;;6.63;4.78;;;30.50;99.90;;;;;;5072604;28;20173;-70
2022/06/18 05:43:53;;;;;;;8.13;4.20;;;30.90;99.90;;;;;;5072345;28;20172;-71
2022/06/18 05:46:18;;;;;;;4.80;4.20;;;31.20;99.90;;;;;;5072167;28;20729;-70
2022/06/18 05:48:44;;;;;;;11.23;4.55;;;31.50;99.90;;;;;;5072154;28;20169;-71
2022/06/18 05:51:10;;;;;;;8.23;4.13;;;32.10;99.90;;;;;;5075114;28;20181;-70
2022/06/18 05:53:36;;;;;;;6.95;4.57;;;32.40;99.90;;;;;;5076199;28;20207;-70
2022/06/18 05:56:02;;;;;;;5.97;4.07;;;32.40;99.90;;;;;;5076254;28;20204;-71
2022/06/18 05:58:27;;;;;;;8.63;4.00;;;33.10;99.90;;;;;;5076014;28;20173;-70
2022/06/18 06:00:53;;;;;;;9.38;4.90;;;33.30;99.90;;;;;;5075856;28;20643;-70
2022/06/18 06:03:19;;;;;;;8.68;4.40;;;33.40;99.90;;;;;;5075883;28;20372;-70
2022/06/18 06:05:44;;;;;;;4.60;4.20;;;33.90;99.90;;;;;;5075631;28;20535;-70
2022/06/18 06:08:14;;;;;;;6.20;4.50;;;34.20;99.90;;;;;;5076115;28;20165;-70
2022/06/18 06:13:24;;;;;;;6.88;4.30;;;34.30;99.90;;;;;;5076221;28;20248;-69
2022/06/18 06:15:51;;;;;;;7.15;4.78;;;34.40;99.90;;;;;;5074293;28;20703;-70
2022/06/18 06:18:18;;;;;;;8.75;4.28;;;34.90;99.90;;;;;;5075422;28;20173;-70
2022/06/18 06:20:47;;;;;;;6.03;4.20;;;34.80;96.80;;;;;;5075659;28;20564;-69
2022/06/18 06:23:14;;;;;;;6.22;4.55;;;35.10;92.00;;;;;;5075798;28;20222;-71
2022/06/18 06:25:41;;;;;;;5.68;4.10;;;35.40;84.90;;;;;;5075877;28;20290;-69
2022/06/18 06:28:11;;;;;;;5.35;3.88;;;35.50;73.50;;;;;;5075592;28;20176;-71
2022/06/18 06:30:38;;;;;;;9.65;4.50;;;35.50;66.70;;;;;;5074855;28;20180;-70
2022/06/18 06:33:04;;;;;;;8.05;4.60;;;35.60;59.00;;;;;;5075881;28;20164;-70
2022/06/18 06:35:29;;;;;;;6.10;4.43;;;36.20;50.30;;;;;;5075456;28;20477;-70
2022/06/18 06:37:55;;;;;;;9.82;4.97;;;35.80;49.80;;;;;;5075668;28;20180;-70
2022/06/18 06:40:20;;;;;;;8.60;4.50;;;36.50;44.50;;;;;;5075159;28;20261;-71
2022/06/18 06:42:51;;;;;;;8.93;4.93;;;36.50;34.80;;;;;;5075304;28;20173;-71
2022/06/18 06:45:25;;;;;;;8.57;4.75;;;35.40;43.60;;;;;;5075299;28;20169;-71
2022/06/18 06:47:52;;;;;;;6.57;4.47;;;35.00;44.80;;;;;;5074958;28;20267;-71
2022/06/18 06:50:19;;;;;;;9.38;4.55;;;35.30;42.30;;;;;;5075257;28;20207;-71
2022/06/18 06:52:48;;;;;;;10.85;4.40;;;36.20;36.70;;;;;;5075187;28;20184;-70
2022/06/18 06:58:01;;;;;;;8.88;4.18;;;38.00;19.70;;;;;;5075013;28;20535;-70
2022/06/18 07:00:27;;;;;;;5.88;4.20;;;38.60;9.40;;;;;;5074529;28;20191;-71
2022/06/18 07:02:53;;;;;;;5.00;3.58;;;38.10;5.40;;;;;;5074671;28;20220;-72
2022/06/18 07:05:19;;;;;;;9.70;4.13;;;38.00;1.10;;;;;;5074793;28;20669;-72
2022/06/18 07:07:45;;;;;;;7.70;3.80;;;37.40;2.10;;;;;;5074884;28;20230;-72
2022/06/18 07:10:11;;;;;;;8.68;4.10;;;38.10;1.00;;;;;;5073403;28;20643;-72
2022/06/18 07:12:38;;;;;;;7.25;4.28;;;38.60;1.00;;;;;;5074986;28;20171;-71
2022/06/18 07:15:05;;;;;;;8.38;4.10;;;39.40;1.00;;;;;;5074319;28;20172;-71
2022/06/18 07:17:31;;;;;;;8.63;4.28;;;39.70;1.00;;;;;;5075058;28;20237;-71
2022/06/18 07:19:56;;;;;;;4.97;4.00;;;39.70;1.00;;;;;;5074564;28;20168;-71
2022/06/18 07:22:22;;;;;;;7.80;4.13;;;40.20;1.00;;;;;;5074658;28;20180;-71
2022/06/18 07:24:47;;;;;;;11.27;4.15;;;40.20;1.00;;;;;;5074589;28;20631;-71
2022/06/18 07:27:13;;;;;;;8.45;4.15;;;40.70;1.00;;;;;;5074244;28;20292;-72
2022/06/18 07:29:39;;;;;;;10.88;3.90;;;40.10;1.00;;;;;;5073788;28;20255;-71
2022/06/18 07:32:17;;;;;;;9.32;4.18;;;39.70;1.00;;;;;;5074139;28;20653;-71
2022/06/18 07:34:44;;;;;;;10.60;4.18;;;40.10;1.00;;;;;;5074358;28;20217;-72
2022/06/18 07:37:10;;;;;;;6.18;3.90;;;39.70;1.00;;;;;;5074267;28;20164;-70
2022/06/18 07:39:36;;;;;;;9.38;3.95;;;39.80;1.00;;;;;;5074263;28;20195;-70
2022/06/18 07:42:03;;;;;;;6.40;4.00;;;39.90;1.00;;;;;;5073585;28;20623;-72
2022/06/18 07:44:29;;;;;;;9.85;4.10;;;40.20;1.00;;;;;;5073883;28;20203;-72
2022/06/18 07:46:58;;;;;;;7.57;3.72;;;39.80;1.00;;;;;;5074216;28;20748;-72
2022/06/18 07:49:25;;;;;;;7.85;3.80;;;39.50;1.00;;;;;;5073756;28;20255;-71
2022/06/18 07:51:51;;;;;;;6.70;3.83;;;39.80;1.00;;;;;;5073889;28;20196;-71
2022/06/18 07:54:18;;;;;;;8.98;4.30;;;40.30;1.00;;;;;;5073285;28;20262;-71
2022/06/18 07:56:44;;;;;;;4.53;4.07;;;40.70;1.00;;;;;;5073337;28;20219;-71
2022/06/18 07:59:10;;;;;;;10.60;4.10;;;41.10;1.00;;;;;;5073992;28;20176;-71
2022/06/18 08:01:36;;;;;;;6.22;3.85;;;40.50;1.00;;;;;;5073726;28;20685;-72
2022/06/18 08:04:02;;;;;;;10.60;4.22;;;40.20;1.00;;;;;;5073664;28;20188;-70
2022/06/18 08:06:28;;;;;;;5.88;3.95;;;39.50;1.00;;;;;;5073791;28;20310;-71
2022/06/18 08:08:53;;;;;;;8.15;4.07;;;39.50;1.00;;;;;;5073041;28;20566;-73
2022/06/18 08:11:20;;;;;;;5.03;3.75;;;39.50;1.00;;;;;;5072908;28;20303;-71
2022/06/18 08:13:47;;;;;;;5.70;3.50;;;39.80;1.00;;;;;;5072833;28;20195;-71
2022/06/18 08:16:15;;;;;;;7.25;3.40;;;40.30;1.00;;;;;;5073571;28;20179;-72
2022/06/18 08:18:41;;;;;;;9.15;3.65;;;40.20;1.00;;;;;;5072866;28;20603;-72
2022/06/18 08:21:44;;;;;;;6.53;4.15;;;39.40;1.00;;;;;;5073266;28;20184;-71
2022/06/18 08:24:16;;;;;;;6.88;4.25;;;40.00;1.00;;;;;;5030909;28;20189;-72
2022/06/18 08:26:44;;;;;;;10.52;3.83;;;40.20;1.00;;;;;;5030909;28;20279;-71
2022/06/18 08:29:15;;;;;;;6.35;3.90;;;40.70;1.00;;;;;;5031392;28;20169;-71
2022/06/18 08:31:41;;;;;;;6.75;3.65;;;41.30;1.00;;;;;;5030818;28;20174;-71
2022/06/18 08:34:07;;;;;;;5.13;3.63;;;41.40;1.00;;;;;;5031261;28;20707;-71
2022/06/18 08:36:33;;;;;;;9.57;4.05;;;42.10;1.00;;;;;;5031256;28;20185;-71
2022/06/18 08:39:00;;;;;;;5.63;3.50;;;42.60;1.00;;;;;;5031072;28;20173;-72
2022/06/18 08:41:43;;;;;;;8.52;3.95;;;42.50;1.00;;;;;;5030143;28;20177;-71
2022/06/18 08:44:15;;;;;;;5.20;3.60;;;42.60;1.00;;;;;;5031140;28;20176;-71
2022/06/18 08:46:58;;;;;;;8.98;3.80;;;42.20;1.00;;;;;;5030669;28;20231;-71
2022/06/18 08:49:49;;;;;;;8.50;3.53;;;41.90;1.00;;;;;;5031038;28;20328;-71
2022/06/18 08:52:36;;;;;;;8.18;3.80;;;42.20;1.00;;;;;;5030758;28;20177;-71
2022/06/18 08:55:24;;;;;;;7.93;3.88;;;41.80;1.00;;;;;;5030594;28;20280;-72
2022/06/18 08:58:07;;;;;;;5.85;3.70;;;42.10;1.00;;;;;;5029701;28;20177;-72
2022/06/18 09:00:55;;;;;;;4.78;3.72;;;42.90;1.00;;;;;;5065344;28;20666;-71
2022/06/18 09:03:54;;;;;;;13.75;4.05;;;42.10;1.00;;;;;;5072792;28;20714;-71
2022/06/18 09:06:35;;;;;;;9.93;4.30;;;41.10;1.00;;;;;;5072216;28;20258;-72
2022/06/18 09:09:31;;;;;;;9.07;3.83;;;42.10;1.00;;;;;;5072940;28;20182;-71
2022/06/18 09:12:09;;;;;;;9.63;3.95;;;41.60;1.00;;;;;;5072976;28;20195;-71
2022/06/18 09:14:48;;;;;;;10.10;4.15;;;41.50;1.00;;;;;;5073137;28;20254;-72
2022/06/18 09:17:20;;;;;;;8.43;4.10;;;42.10;1.00;;;;;;5072316;28;20624;-72
2022/06/18 09:19:55;;;;;;;6.80;3.60;;;42.70;1.00;;;;;;5072230;28;20281;-72
2022/06/18 09:22:21;;;;;;;11.57;4.20;;;42.80;1.00;;;;;;5072571;28;20538;-72
2022/06/18 09:24:54;;;;;;;8.55;3.38;;;42.40;1.00;;;;;;5074249;28;20175;-72
2022/06/18 09:27:24;;;;;;;7.88;3.42;;;42.00;1.00;;;;;;5076650;28;20276;-71
2022/06/18 09:29:52;;;;;;;7.05;3.67;;;41.20;1.00;;;;;;5075679;28;20175;-71
2022/06/18 09:32:27;;;;;;;8.35;4.22;;;41.50;1.00;;;;;;5076697;28;20221;-73
2022/06/18 09:35:03;;;;;;;8.57;3.97;;;41.90;1.00;;;;;;5076465;28;20526;-71
2022/06/18 09:37:41;;;;;;;9.65;4.60;;;41.90;1.00;;;;;;5076487;28;20254;-72
2022/06/18 09:40:15;;;;;;;5.20;3.38;;;42.30;1.00;;;;;;5076295;28;20179;-72
2022/06/18 09:42:50;;;;;;;12.02;4.00;;;42.20;1.00;;;;;;5076197;28;20174;-72
2022/06/18 09:45:22;;;;;;;8.27;3.78;;;41.80;1.00;;;;;;5076104;28;20229;-72
2022/06/18 09:47:49;;;;;;;7.45;3.67;;;41.40;1.00;;;;;;5076727;28;20211;-72
2022/06/18 09:50:45;;;;;;;7.78;3.90;;;41.70;1.00;;;;;;5076552;28;20169;-73
2022/06/18 09:53:16;;;;;;;9.20;3.80;;;41.90;1.00;;;;;;5073734;28;20573;-72
2022/06/18 09:55:47;;;;;;;8.60;4.25;;;41.00;1.00;;;;;;5076421;28;20217;-73
2022/06/18 09:58:26;;;;;;;5.80;3.50;;;41.00;1.00;;;;;;5076046;28;20217;-71
2022/06/18 10:00:54;;;;;;;7.03;3.90;;;40.50;1.00;;;;;;5075164;28;20191;-72
2022/06/18 10:08:57;;;;;;;7.68;3.55;;;39.70;1.00;;;;;;5076086;28;20186;-71
2022/06/18 10:11:24;;;;;;;7.18;3.60;;;39.00;1.00;;;;;;5075150;28;20179;-72
2022/06/18 10:13:59;;;;;;;5.35;3.10;;;38.80;1.00;;;;;;5075372;28;20211;-71
2022/06/18 10:16:28;;;;;;;6.15;3.22;;;38.50;1.00;;;;;;5076028;28;20172;-72
2022/06/18 10:19:17;;;;;;;10.82;4.00;;;39.10;1.00;;;;;;5075548;28;20187;-71
2022/06/18 10:22:09;;;;;;;14.15;4.00;;;39.20;1.00;;;;;;5075042;28;20160;-72
2022/06/18 10:24:58;;;;;;;8.38;3.85;;;39.90;1.00;;;;;;5075355;28;20175;-71
2022/06/18 10:27:43;;;;;;;8.98;3.60;;;39.60;1.00;;;;;;5075734;28;20212;-71
2022/06/18 10:30:21;;;;;;;9.32;3.75;;;39.90;1.00;;;;;;5074944;28;20175;-71
2022/06/18 10:32:52;;;;;;;6.50;3.47;;;40.30;1.00;;;;;;5074989;28;20176;-71
2022/06/18 10:35:30;;;;;;;8.52;3.67;;;39.50;1.00;;;;;;5074738;28;20192;-72
2022/06/18 10:38:23;;;;;;;8.88;3.60;;;38.80;1.00;;;;;;5074850;28;20168;-71
2022/06/18 10:41:11;;;;;;;6.20;3.60;;;39.30;1.00;;;;;;5074659;28;20524;-71
2022/06/18 10:43:55;;;;;;;11.25;3.70;;;40.00;1.00;;;;;;5075126;28;20647;-72
2022/06/18 10:46:22;;;;;;;9.23;3.88;;;41.20;1.00;;;;;;5075093;28;20214;-71
2022/06/18 10:48:53;;;;;;;4.57;3.55;;;41.80;1.00;;;;;;5074500;28;20565;-71
2022/06/18 10:51:24;;;;;;;9.13;4.32;;;42.80;1.00;;;;;;5075175;28;20164;-71
2022/06/18 10:53:51;;;;;;;10.55;4.47;;;42.80;1.00;;;;;;5074798;28;20651;-72
2022/06/18 10:56:21;;;;;;;7.38;3.70;;;42.20;1.00;;;;;;5074915;28;20168;-72
2022/06/18 10:58:49;;;;;;;5.43;3.78;;;41.90;1.00;;;;;;5075191;28;20233;-72
2022/06/18 11:01:16;;;;;;;4.85;3.20;;;41.90;1.00;;;;;;5074750;28;20192;-71
2022/06/18 11:03:53;;;;;;;7.15;3.88;;;40.80;1.00;;;;;;5074037;28;20223;-71
2022/06/18 11:06:19;;;;;;;12.55;3.65;;;40.10;1.00;;;;;;5074817;28;20188;-71
2022/06/18 11:08:57;;;;;;;8.00;4.55;;;39.40;1.00;;;;;;5074611;28;20531;-72
2022/06/18 11:11:28;;;;;;;11.52;4.05;;;39.50;1.00;;;;;;5074561;28;20175;-72
2022/06/18 11:13:55;;;;;;;13.35;4.10;;;40.00;1.00;;;;;;5074435;28;20176;-72
2022/06/18 11:16:27;;;;;;;8.25;3.88;;;40.10;1.00;;;;;;5074561;28;20184;-72
2022/06/18 11:18:59;;;;;;;10.82;4.03;;;39.70;1.00;;;;;;5074456;28;20705;-72
2022/06/18 11:21:34;;;;;;;7.82;3.90;;;38.90;1.00;;;;;;5074472;28;20255;-72
2022/06/18 11:24:05;;;;;;;8.13;3.63;;;38.10;1.00;;;;;;5073852;28;20178;-71
2022/06/18 11:26:31;;;;;;;4.65;3.70;;;37.70;1.00;;;;;;5073789;28;20200;-71
2022/06/18 11:29:07;;;;;;;10.02;5.10;;;37.50;1.00;;;;;;5073582;28;20241;-73
2022/06/18 11:31:36;;;;;;;7.20;3.70;;;37.60;1.00;;;;;;5073027;28;20254;-72
2022/06/18 11:34:21;;;;;;;8.27;3.92;;;37.10;1.00;;;;;;5073345;28;20631;-72
2022/06/18 11:36:50;;;;;;;6.18;3.50;;;37.20;1.00;;;;;;5073507;28;20635;-71
2022/06/18 11:39:33;;;;;;;8.50;4.30;;;38.30;1.00;;;;;;5074035;28;20156;-72
2022/06/18 11:42:10;;;;;;;5.25;3.63;;;39.00;1.00;;;;;;5074322;28;20716;-73
2022/06/18 11:44:43;;;;;;;6.47;3.75;;;38.10;1.00;;;;;;5073843;28;20179;-72
2022/06/18 11:47:35;;;;;;;8.80;3.50;;;37.70;1.00;;;;;;5073498;28;20223;-72
2022/06/18 11:50:37;;;;;;;7.80;3.83;;;37.50;1.00;;;;;;5073040;28;20183;-72
2022/06/18 11:53:16;;;;;;;5.93;3.72;;;37.30;1.00;;;;;;5071959;28;20237;-71
2022/06/18 11:55:50;;;;;;;8.93;3.88;;;36.90;1.00;;;;;;5073754;28;20217;-72
2022/06/18 11:58:49;;;;;;;5.40;3.45;;;36.80;1.00;;;;;;5073291;28;20191;-71
2022/06/18 12:01:17;;;;;;;7.18;3.80;;;36.80;1.00;;;;;;5071509;28;20211;-72
2022/06/18 12:03:51;;;;;;;4.85;3.40;;;36.80;1.00;;;;;;5072320;28;20212;-69
2022/06/18 12:06:46;;;;;;;4.13;3.30;;;37.00;1.00;;;;;;5073464;28;20200;-70
2022/06/18 12:09:13;;;;;;;4.28;3.67;;;36.90;1.00;;;;;;5073698;28;20523;-71
2022/06/18 12:12:02;;;;;;;5.43;3.80;;;36.60;1.00;;;;;;5072949;28;20168;-71
2022/06/18 12:14:31;;;;;;;7.07;3.75;;;37.00;1.00;;;;;;5073404;28;20642;-71
2022/06/18 12:17:07;;;;;;;4.90;3.80;;;37.20;1.00;;;;;;5073400;28;20177;-71
2022/06/18 12:20:09;;;;;;;5.97;3.58;;;36.50;1.00;;;;;;5073078;28;20623;-71
2022/06/18 12:22:40;;;;;;;8.65;4.28;;;36.50;1.00;;;;;;5072597;28;20176;-70
2022/06/18 12:25:17;;;;;;;6.80;3.80;;;36.20;1.00;;;;;;5073251;28;20172;-71
2022/06/18 12:27:52;;;;;;;7.13;3.75;;;36.20;1.00;;;;;;5072898;28;20208;-71
2022/06/18 12:30:31;;;;;;;7.30;3.50;;;36.40;1.00;;;;;;5072961;28;20228;-71
2022/06/18 12:33:12;;;;;;;3.83;3.28;;;36.10;1.00;;;;;;5072418;28;20172;-70
2022/06/18 12:35:52;;;;;;;6.30;3.53;;;36.20;1.00;;;;;;5071258;28;20175;-70
2022/06/18 12:38:42;;;;;;;5.72;3.70;;;36.20;1.00;;;;;;5071412;28;20192;-70
2022/06/18 12:41:39;;;;;;;7.72;3.40;;;36.40;1.00;;;;;;5071426;28;20164;-70
2022/06/18 12:44:17;;;;;;;9.77;4.10;;;36.30;1.00;;;;;;5071030;28;20216;-72
2022/06/18 12:46:57;;;;;;;4.85;3.83;;;35.70;1.00;;;;;;5070978;28;20639;-71
2022/06/18 12:49:53;;;;;;;6.53;3.80;;;36.10;1.00;;;;;;5071714;28;20261;-70
2022/06/18 12:52:37;;;;;;;6.32;4.35;;;36.50;1.00;;;;;;5050779;28;20264;-70
2022/06/18 12:55:39;;;;;;;6.22;3.42;;;36.90;1.00;;;;;;5072400;28;20192;-70
2022/06/18 12:58:37;;;;;;;4.70;3.50;;;37.00;1.00;;;;;;5072933;28;20172;-70
2022/06/18 13:01:10;;;;;;;7.03;3.40;;;36.70;1.00;;;;;;5035521;28;20249;-70
2022/06/18 13:04:02;;;;;;;6.90;3.42;;;36.60;1.00;;;;;;5071760;28;20221;-70
2022/06/18 13:06:42;;;;;;;5.97;3.30;;;36.50;1.00;;;;;;5072685;28;20272;-70
2022/06/18 13:09:35;;;;;;;5.80;3.70;;;36.10;1.00;;;;;;5072047;28;20172;-70
2022/06/18 13:12:06;;;;;;;7.75;3.97;;;36.10;1.00;;;;;;5072688;28;20551;-70
2022/06/18 13:14:38;;;;;;;8.18;3.20;;;36.40;1.00;;;;;;5072419;28;20194;-71
2022/06/18 13:17:23;;;;;;;6.95;3.65;;;36.50;1.00;;;;;;5072223;28;20174;-72
2022/06/18 13:19:54;;;;;;;7.88;3.60;;;36.20;1.00;;;;;;5073205;28;20168;-70
2022/06/18 13:22:20;;;;;;;7.03;3.90;;;36.30;1.00;;;;;;5072051;28;20252;-70
2022/06/18 13:30:58;;;;;;;4.78;3.20;;;36.00;1.00;;;;;;5072559;28;20540;-71
2022/06/18 13:33:32;;;;;;;12.38;4.05;;;35.90;1.00;;;;;;5072417;28;20211;-70
2022/06/18 13:36:03;;;;;;;5.97;3.58;;;36.00;1.00;;;;;;5072014;28;20186;-71
2022/06/18 13:38:45;;;;;;;5.32;3.38;;;35.80;1.00;;;;;;5072741;28;20263;-71